Time;durP1;ratioP1;P1;durP2;ratioP2;P2;SDS_P1;SDS_P2;PMS_P1;PMS_P2;Temp;Humidity;BMP_temperature;BMP_pressure;BME280_temperature;BME280_humidity;BME280_pressure;Samples;Min_cycle;Max_cycle;Signal;HPM_P1;HPM_P2
2023/01/13 00:01:10;;;;;;;27.20;5.63;;;9.30;84.20;;;;;;5000334;28;20042;-76
2023/01/13 00:03:36;;;;;;;17.30;4.75;;;9.40;84.00;;;;;;4988790;28;20022;-78
2023/01/13 00:06:03;;;;;;;30.58;5.53;;;9.30;84.30;;;;;;4991821;28;20294;-78
2023/01/13 00:08:29;;;;;;;22.90;4.45;;;9.20;84.50;;;;;;4993102;28;20033;-77
2023/01/13 00:10:55;;;;;;;29.00;6.20;;;9.20;84.60;;;;;;4986201;28;20464;-75
2023/01/13 00:13:25;;;;;;;27.42;5.10;;;9.20;84.80;;;;;;4982363;28;20545;-78
2023/01/13 00:15:58;;;;;;;23.25;5.35;;;9.10;85.10;;;;;;4981998;28;20333;-75
2023/01/13 00:18:24;;;;;;;21.70;4.90;;;9.10;85.20;;;;;;4987679;28;20545;-78
2023/01/13 00:21:01;;;;;;;28.98;5.20;;;9.10;85.50;;;;;;4987164;28;20050;-78
2023/01/13 00:23:28;;;;;;;31.83;6.40;;;9.10;85.50;;;;;;4988550;28;20127;-78
2023/01/13 00:25:58;;;;;;;22.38;5.22;;;9.10;85.50;;;;;;4985940;28;20034;-77
2023/01/13 00:28:24;;;;;;;30.20;5.97;;;9.10;85.80;;;;;;4993041;28;20033;-78
2023/01/13 00:30:50;;;;;;;27.10;5.07;;;9.10;85.70;;;;;;4983622;28;20404;-80
2023/01/13 00:33:16;;;;;;;26.67;5.38;;;9.10;85.60;;;;;;4985695;28;20022;-76
2023/01/13 00:35:41;;;;;;;24.00;4.68;;;9.10;85.50;;;;;;4985666;28;20702;-77
2023/01/13 00:38:07;;;;;;;22.95;4.43;;;9.10;85.50;;;;;;4989252;28;20027;-77
2023/01/13 00:40:33;;;;;;;21.33;5.43;;;9.00;85.70;;;;;;4990373;28;20064;-76
2023/01/13 00:45:43;;;;;;;24.13;4.60;;;9.10;85.70;;;;;;4978279;28;20748;-77
2023/01/13 00:48:09;;;;;;;27.27;4.90;;;9.00;85.80;;;;;;4994060;28;20014;-78
2023/01/13 00:50:35;;;;;;;24.42;6.00;;;9.10;85.60;;;;;;4985359;28;20045;-77
2023/01/13 00:53:01;;;;;;;18.85;4.80;;;9.00;85.60;;;;;;4983833;28;20080;-78
2023/01/13 00:55:29;;;;;;;23.67;4.38;;;9.00;85.40;;;;;;4981868;28;20406;-79
2023/01/13 00:57:54;;;;;;;25.10;4.47;;;9.00;85.50;;;;;;4989275;28;20026;-79
2023/01/13 01:00:20;;;;;;;29.60;5.35;;;9.00;85.50;;;;;;4983937;28;20157;-79
2023/01/13 01:02:45;;;;;;;23.75;4.80;;;9.00;85.50;;;;;;4984532;28;20487;-77
2023/01/13 01:05:11;;;;;;;25.65;4.32;;;8.90;85.50;;;;;;4980912;28;20030;-78
2023/01/13 01:07:37;;;;;;;23.55;4.65;;;8.90;85.50;;;;;;5000442;28;20165;-78
2023/01/13 01:10:03;;;;;;;25.95;5.20;;;8.90;85.40;;;;;;4986027;28;20143;-78
2023/01/13 01:12:28;;;;;;;19.75;5.00;;;8.90;85.50;;;;;;4986042;28;20073;-79
2023/01/13 01:14:54;;;;;;;22.00;5.13;;;8.90;85.70;;;;;;4982352;28;20030;-78
2023/01/13 01:17:20;;;;;;;20.65;4.80;;;8.90;85.40;;;;;;4982699;28;20046;-79
2023/01/13 01:19:46;;;;;;;16.15;4.25;;;8.90;85.50;;;;;;4983134;28;20034;-78
2023/01/13 01:22:11;;;;;;;23.58;4.47;;;8.90;85.60;;;;;;4985087;28;20042;-75
2023/01/13 01:24:37;;;;;;;28.27;5.38;;;8.80;85.70;;;;;;4997661;28;20045;-79
2023/01/13 01:27:03;;;;;;;22.38;4.80;;;8.90;85.70;;;;;;4986770;28;20039;-79
2023/01/13 01:29:28;;;;;;;18.60;4.05;;;8.90;85.80;;;;;;4979727;28;20046;-79
2023/01/13 01:31:57;;;;;;;23.35;5.03;;;8.90;85.80;;;;;;4985406;28;20200;-77
2023/01/13 01:34:23;;;;;;;23.45;5.05;;;8.90;85.60;;;;;;4990466;28;20027;-78
2023/01/13 01:36:48;;;;;;;30.35;5.63;;;9.00;85.70;;;;;;4995443;28;20037;-78
2023/01/13 01:39:14;;;;;;;19.83;4.15;;;9.00;85.70;;;;;;4983069;28;20530;-79
2023/01/13 01:43:57;;;;;;;23.15;5.47;;;9.00;85.70;;;;;;4982950;28;20038;-76
2023/01/13 01:44:40;;;;;;;24.45;5.25;;;8.90;85.70;;;;;;4987712;28;20030;-79
2023/01/13 01:47:07;;;;;;;22.67;5.00;;;8.90;85.60;;;;;;4990045;28;20038;-77
2023/01/13 01:49:35;;;;;;;23.48;5.60;;;8.90;85.70;;;;;;4976577;28;20034;-78
2023/01/13 01:52:07;;;;;;;19.90;4.00;;;8.90;85.60;;;;;;4992124;28;20041;-79
2023/01/13 01:54:57;;;;;;;20.30;4.40;;;8.90;85.40;;;;;;4989745;28;20565;-78
2023/01/13 01:57:41;;;;;;;21.85;3.92;;;8.90;85.20;;;;;;4991129;28;20491;-78
2023/01/13 02:00:08;;;;;;;22.13;5.25;;;9.00;84.70;;;;;;4975725;28;20460;-76
2023/01/13 02:02:35;;;;;;;24.60;5.20;;;9.00;84.80;;;;;;4986752;28;20034;-78
2023/01/13 02:05:01;;;;;;;23.50;5.38;;;9.00;84.80;;;;;;4993392;28;20026;-78
2023/01/13 02:07:30;;;;;;;22.05;4.25;;;9.00;85.20;;;;;;4989530;28;20034;-76
2023/01/13 02:09:59;;;;;;;18.90;4.10;;;9.00;85.50;;;;;;4989263;28;20117;-78
2023/01/13 02:12:30;;;;;;;23.00;4.97;;;9.00;85.80;;;;;;4991305;28;20446;-78
2023/01/13 02:15:10;;;;;;;23.88;4.75;;;9.00;86.00;;;;;;4991845;28;20388;-77
2023/01/13 02:17:53;;;;;;;22.98;4.57;;;8.90;86.40;;;;;;4978339;28;20126;-77
2023/01/13 02:20:43;;;;;;;25.52;5.05;;;8.90;86.70;;;;;;4976739;28;20049;-77
2023/01/13 02:24:52;;;;;;;21.83;5.38;;;8.80;87.20;;;;;;4985472;28;20387;-77
2023/01/13 02:26:24;;;;;;;28.67;6.53;;;8.70;87.60;;;;;;4989048;28;20598;-75
2023/01/13 02:32:18;;;;;;;26.77;5.07;;;8.70;88.40;;;;;;4978496;28;20544;-78
2023/01/13 02:35:08;;;;;;;26.83;5.05;;;8.60;89.00;;;;;;4991190;28;20587;-79
2023/01/13 02:37:39;;;;;;;28.23;5.78;;;8.60;89.20;;;;;;4978686;28;20050;-78
2023/01/13 02:40:22;;;;;;;22.30;4.55;;;8.60;89.30;;;;;;4979468;28;20065;-77
2023/01/13 02:45:49;;;;;;;20.23;4.47;;;8.60;89.50;;;;;;4981010;28;20398;-77
2023/01/13 02:48:17;;;;;;;31.40;5.35;;;8.60;89.50;;;;;;4991539;28;20546;-77
2023/01/13 02:51:09;;;;;;;21.75;3.90;;;8.60;89.50;;;;;;4986277;28;20457;-77
2023/01/13 02:53:52;;;;;;;22.83;5.32;;;8.60;89.60;;;;;;4980812;28;20042;-77
2023/01/13 02:56:20;;;;;;;26.27;4.95;;;8.60;89.60;;;;;;4978148;28;20126;-76
2023/01/13 02:58:47;;;;;;;23.40;4.07;;;8.50;89.70;;;;;;4980524;28;20026;-78
2023/01/13 03:01:13;;;;;;;19.83;4.30;;;8.40;89.70;;;;;;4977587;28;20053;-76
2023/01/13 03:03:38;;;;;;;22.63;4.40;;;8.40;89.70;;;;;;4986433;28;20021;-77
2023/01/13 03:06:19;;;;;;;18.00;3.70;;;8.40;89.70;;;;;;4980660;28;20038;-78
2023/01/13 03:09:01;;;;;;;18.15;4.18;;;8.40;89.70;;;;;;4981051;28;20022;-78
2023/01/13 03:11:31;;;;;;;20.00;4.03;;;8.40;89.70;;;;;;4981503;28;20057;-78
2023/01/13 03:14:07;;;;;;;17.77;4.05;;;8.40;89.60;;;;;;4981789;28;20027;-78
2023/01/13 03:16:44;;;;;;;22.63;4.30;;;8.30;89.70;;;;;;4981345;28;20095;-78
2023/01/13 03:19:16;;;;;;;19.63;4.60;;;8.30;89.60;;;;;;4984530;28;20030;-77
2023/01/13 03:21:56;;;;;;;21.60;3.95;;;8.20;89.60;;;;;;4980663;28;20518;-76
2023/01/13 03:24:35;;;;;;;20.52;3.63;;;8.20;89.40;;;;;;4973716;28;20027;-77
2023/01/13 03:27:20;;;;;;;22.00;4.13;;;8.20;89.30;;;;;;4984317;28;20042;-76
2023/01/13 03:29:54;;;;;;;16.55;3.22;;;8.10;89.30;;;;;;4972905;28;20107;-77
2023/01/13 03:32:26;;;;;;;14.30;4.13;;;8.10;89.10;;;;;;4971978;28;20046;-78
2023/01/13 03:35:21;;;;;;;20.20;3.80;;;8.10;89.10;;;;;;4983218;28;20313;-77
2023/01/13 03:37:54;;;;;;;18.10;3.67;;;8.10;89.10;;;;;;4977369;28;20121;-77
2023/01/13 03:40:33;;;;;;;18.38;3.83;;;8.10;89.00;;;;;;4973286;28;20030;-77
2023/01/13 03:45:56;;;;;;;18.13;3.78;;;8.10;88.80;;;;;;4976858;28;20045;-78
2023/01/13 03:48:26;;;;;;;12.95;3.03;;;8.10;88.70;;;;;;4976971;28;20660;-77
2023/01/13 03:50:56;;;;;;;13.00;3.05;;;8.10;88.30;;;;;;4981835;28;20041;-78
2023/01/13 03:53:32;;;;;;;19.10;2.78;;;8.10;88.20;;;;;;4981460;28;20641;-78
2023/01/13 03:56:04;;;;;;;14.82;3.22;;;8.10;88.00;;;;;;4981192;28;20247;-78
2023/01/13 03:58:37;;;;;;;20.50;3.50;;;8.10;87.90;;;;;;4982301;28;20039;-77
2023/01/13 04:01:17;;;;;;;22.35;3.85;;;8.10;87.70;;;;;;4979251;28;20057;-77
2023/01/13 04:04:07;;;;;;;15.25;3.08;;;8.10;87.60;;;;;;4982781;28;20092;-79
2023/01/13 04:06:56;;;;;;;19.58;3.53;;;8.10;87.60;;;;;;4975929;28;20074;-77
2023/01/13 04:09:36;;;;;;;18.75;3.60;;;8.20;87.60;;;;;;4980412;28;20417;-79
2023/01/13 04:12:26;;;;;;;19.25;3.88;;;8.20;87.30;;;;;;4988809;28;20637;-77
2023/01/13 04:14:53;;;;;;;17.70;3.75;;;8.10;87.20;;;;;;4981218;28;20100;-78
2023/01/13 04:17:20;;;;;;;15.57;2.95;;;8.10;87.10;;;;;;4983441;28;20050;-77
2023/01/13 04:19:45;;;;;;;19.80;3.70;;;8.10;87.00;;;;;;4980167;28;20065;-78
2023/01/13 04:22:11;;;;;;;19.80;3.92;;;8.20;86.90;;;;;;4986357;28;20066;-78
2023/01/13 04:24:37;;;;;;;21.58;4.47;;;8.20;86.70;;;;;;4985593;28;20242;-78
2023/01/13 04:27:06;;;;;;;18.35;3.63;;;8.10;86.80;;;;;;4982441;28;20034;-78
2023/01/13 04:29:32;;;;;;;19.85;3.47;;;8.10;86.80;;;;;;4983101;28;20031;-76
2023/01/13 04:31:58;;;;;;;15.80;3.38;;;8.10;86.70;;;;;;4985947;28;20065;-77
2023/01/13 04:34:23;;;;;;;22.25;4.32;;;8.10;86.60;;;;;;4986087;28;20030;-76
2023/01/13 04:36:49;;;;;;;20.38;4.78;;;8.10;86.40;;;;;;4981250;28;20034;-77
2023/01/13 04:39:15;;;;;;;16.15;3.17;;;8.10;86.20;;;;;;4984628;28;20372;-78
2023/01/13 04:42:00;;;;;;;17.80;3.67;;;8.10;86.00;;;;;;4986750;28;20047;-76
2023/01/13 04:44:26;;;;;;;19.52;4.03;;;8.10;85.90;;;;;;4986249;28;20053;-77
2023/01/13 04:46:52;;;;;;;18.92;4.00;;;8.10;85.50;;;;;;4987864;28;20165;-78
2023/01/13 04:49:17;;;;;;;21.00;4.40;;;8.10;84.90;;;;;;4977699;28;20543;-78
2023/01/13 04:51:43;;;;;;;19.20;3.60;;;8.10;84.60;;;;;;4985280;28;20121;-78
2023/01/13 04:54:10;;;;;;;19.70;4.47;;;8.10;84.80;;;;;;4985556;28;20025;-77
2023/01/13 04:56:36;;;;;;;18.50;4.55;;;8.10;84.70;;;;;;4986218;28;20038;-77
2023/01/13 04:59:01;;;;;;;16.83;3.72;;;8.10;84.60;;;;;;4982572;28;20019;-77
2023/01/13 05:01:27;;;;;;;23.17;5.63;;;8.00;84.50;;;;;;4979186;28;20042;-78
2023/01/13 05:03:53;;;;;;;18.20;4.45;;;8.00;84.60;;;;;;4982671;28;20026;-76
2023/01/13 05:06:18;;;;;;;16.48;3.50;;;8.00;84.60;;;;;;4980957;28;20053;-77
2023/01/13 05:08:44;;;;;;;19.35;4.03;;;8.00;84.60;;;;;;4991384;28;20046;-77
2023/01/13 05:19:22;;;;;;;18.55;4.10;;;7.90;84.60;;;;;;4977434;28;20033;-77
2023/01/13 05:27:16;;;;;;;26.73;4.72;;;8.10;84.50;;;;;;4978546;28;20568;-77
2023/01/13 05:29:42;;;;;;;20.02;4.45;;;8.10;84.60;;;;;;4979848;28;20102;-77
2023/01/13 05:32:08;;;;;;;23.52;4.82;;;8.10;84.60;;;;;;4982468;28;20482;-78
2023/01/13 05:34:33;;;;;;;25.27;4.70;;;8.10;84.60;;;;;;4984916;28;20492;-78
2023/01/13 05:36:59;;;;;;;19.88;3.92;;;8.10;84.50;;;;;;4979991;28;20030;-77
2023/01/13 05:39:26;;;;;;;19.85;5.13;;;8.10;84.40;;;;;;4982538;28;20029;-76
2023/01/13 05:44:36;;;;;;;22.33;5.00;;;8.20;83.70;;;;;;4984411;28;20133;-77
2023/01/13 05:47:02;;;;;;;21.60;4.65;;;8.20;83.70;;;;;;4983605;28;20113;-77
2023/01/13 05:49:28;;;;;;;31.10;5.30;;;8.20;83.80;;;;;;4983416;28;20122;-77
2023/01/13 05:51:53;;;;;;;25.70;4.30;;;8.10;84.10;;;;;;4984987;28;20041;-77
2023/01/13 05:54:19;;;;;;;22.02;5.00;;;8.10;84.00;;;;;;4993102;28;20030;-76
2023/01/13 05:56:44;;;;;;;21.30;5.10;;;8.10;84.00;;;;;;4981842;28;20506;-76
2023/01/13 05:59:10;;;;;;;33.80;5.82;;;8.10;84.10;;;;;;4990105;28;20519;-77
2023/01/13 06:01:36;;;;;;;29.08;5.80;;;8.10;84.00;;;;;;4982888;28;20650;-77
2023/01/13 06:04:02;;;;;;;20.05;4.80;;;8.10;84.10;;;;;;4986625;28;20430;-79
2023/01/13 06:06:27;;;;;;;20.98;4.25;;;8.00;84.10;;;;;;4991699;28;20052;-77
2023/01/13 06:08:53;;;;;;;26.65;5.13;;;8.10;83.70;;;;;;4982568;28;20057;-77
2023/01/13 06:11:19;;;;;;;26.88;5.28;;;8.00;83.90;;;;;;4979733;28;20427;-76
2023/01/13 06:13:44;;;;;;;23.42;5.18;;;8.00;84.00;;;;;;4984452;28;20026;-78
2023/01/13 06:16:10;;;;;;;26.27;5.07;;;8.00;84.00;;;;;;4980456;28;20046;-78
2023/01/13 06:18:36;;;;;;;21.13;4.70;;;8.10;83.90;;;;;;4980232;28;20129;-78
2023/01/13 06:21:02;;;;;;;25.98;5.65;;;8.00;84.00;;;;;;4983978;28;20046;-78
2023/01/13 06:23:33;;;;;;;29.50;5.45;;;8.00;84.50;;;;;;4986535;28;20133;-77
2023/01/13 06:26:03;;;;;;;28.33;6.13;;;8.00;84.40;;;;;;4977420;28;20038;-76
2023/01/13 06:28:29;;;;;;;23.65;5.15;;;8.00;84.40;;;;;;4980796;28;20136;-78
2023/01/13 06:30:58;;;;;;;27.83;5.25;;;8.00;84.40;;;;;;4982107;28;20117;-77
2023/01/13 06:33:29;;;;;;;22.77;4.70;;;8.00;84.30;;;;;;4986345;28;20034;-78
2023/01/13 06:35:59;;;;;;;25.35;5.57;;;8.00;84.30;;;;;;4982316;28;20038;-77
2023/01/13 06:38:28;;;;;;;22.40;4.38;;;8.00;84.20;;;;;;4981481;28;20037;-78
2023/01/13 06:40:54;;;;;;;26.25;5.53;;;8.00;84.30;;;;;;4986982;28;20046;-79
2023/01/13 06:43:19;;;;;;;23.17;5.95;;;8.00;84.10;;;;;;4982883;28;20022;-78
2023/01/13 06:45:47;;;;;;;25.15;5.68;;;8.00;84.10;;;;;;4986981;28;20030;-78
2023/01/13 06:48:13;;;;;;;25.10;5.18;;;8.10;84.00;;;;;;4982527;28;20564;-78
2023/01/13 06:50:41;;;;;;;26.88;5.60;;;8.00;83.60;;;;;;4985305;28;20037;-77
2023/01/13 06:53:06;;;;;;;21.88;4.68;;;8.00;83.50;;;;;;4978757;28;20022;-78
2023/01/13 06:55:32;;;;;;;22.23;4.68;;;8.00;83.40;;;;;;4985501;28;20037;-79
2023/01/13 06:57:58;;;;;;;25.55;5.57;;;8.00;83.50;;;;;;4986945;28;20018;-76
2023/01/13 07:00:25;;;;;;;27.45;5.72;;;8.00;83.30;;;;;;4985278;28;20096;-78
2023/01/13 07:02:51;;;;;;;20.92;4.35;;;8.00;83.20;;;;;;4981860;28;20529;-79
2023/01/13 07:05:18;;;;;;;24.75;4.68;;;8.00;83.10;;;;;;4984654;28;20172;-79
2023/01/13 07:07:44;;;;;;;28.13;5.25;;;8.00;83.10;;;;;;4977791;28;20682;-77
2023/01/13 07:10:12;;;;;;;27.77;6.07;;;8.10;82.90;;;;;;4985878;28;20030;-76
2023/01/13 07:15:24;;;;;;;23.95;5.40;;;8.10;82.90;;;;;;4978081;28;20093;-74
2023/01/13 07:17:50;;;;;;;30.30;4.82;;;8.10;82.80;;;;;;4980456;28;20034;-73
2023/01/13 07:20:16;;;;;;;25.90;4.55;;;8.10;83.20;;;;;;4982872;28;20039;-73
2023/01/13 07:22:42;;;;;;;23.65;5.40;;;8.10;82.80;;;;;;4983599;28;20042;-73
2023/01/13 07:25:08;;;;;;;20.73;4.68;;;8.10;82.80;;;;;;4978819;28;20022;-73
2023/01/13 07:27:34;;;;;;;27.45;5.53;;;8.10;82.70;;;;;;4983099;28;20038;-73
2023/01/13 07:29:59;;;;;;;22.17;5.70;;;8.20;82.80;;;;;;4982181;28;20033;-73
2023/01/13 07:32:25;;;;;;;25.33;5.45;;;8.10;82.70;;;;;;4982000;28;20073;-74
2023/01/13 07:34:50;;;;;;;29.15;5.88;;;8.10;82.90;;;;;;4986773;28;20033;-74
2023/01/13 07:37:16;;;;;;;30.35;6.15;;;8.10;83.00;;;;;;4980428;28;20455;-73
2023/01/13 07:39:44;;;;;;;30.85;6.45;;;8.10;82.80;;;;;;4980977;28;20083;-74
2023/01/13 07:44:54;;;;;;;21.77;5.30;;;8.10;83.00;;;;;;4981920;28;20449;-75
2023/01/13 07:47:22;;;;;;;26.52;5.47;;;8.10;83.40;;;;;;4986727;28;20543;-75
2023/01/13 07:49:48;;;;;;;25.08;6.43;;;8.10;83.20;;;;;;4984859;28;20031;-74
2023/01/13 07:52:14;;;;;;;38.95;6.82;;;8.10;83.00;;;;;;4990619;28;20064;-75
2023/01/13 07:54:39;;;;;;;23.15;5.05;;;8.20;83.00;;;;;;4990698;28;20027;-75
2023/01/13 07:57:05;;;;;;;35.92;7.25;;;8.20;82.90;;;;;;4984686;28;20050;-76
2023/01/13 07:59:31;;;;;;;29.48;5.68;;;8.20;82.80;;;;;;4986249;28;20120;-75
2023/01/13 08:01:56;;;;;;;30.70;6.72;;;8.20;82.80;;;;;;4986849;28;20121;-75
2023/01/13 08:04:22;;;;;;;27.17;5.90;;;8.20;82.80;;;;;;4989001;28;20023;-75
2023/01/13 08:06:48;;;;;;;27.25;7.00;;;8.20;82.80;;;;;;4990861;28;20054;-75
2023/01/13 08:09:14;;;;;;;31.45;6.30;;;8.20;83.00;;;;;;4985713;28;20022;-75
2023/01/13 08:11:39;;;;;;;33.38;5.60;;;8.20;82.50;;;;;;4980467;28;20049;-76
2023/01/13 08:14:05;;;;;;;28.45;5.63;;;8.30;82.50;;;;;;4986301;28;20443;-75
2023/01/13 08:16:33;;;;;;;28.17;7.10;;;8.20;82.60;;;;;;4985256;28;20471;-76
2023/01/13 08:18:58;;;;;;;28.42;5.70;;;8.20;82.70;;;;;;4991121;28;20014;-76
2023/01/13 08:21:24;;;;;;;33.97;7.63;;;8.20;82.50;;;;;;4986550;28;21041;-75
2023/01/13 08:23:50;;;;;;;29.02;6.82;;;8.20;82.60;;;;;;4991793;28;20026;-76
2023/01/13 08:26:17;;;;;;;27.05;7.13;;;8.30;82.50;;;;;;4986457;28;20102;-75
2023/01/13 08:28:43;;;;;;;27.73;6.43;;;8.30;82.20;;;;;;4987164;28;20024;-75
2023/01/13 08:31:12;;;;;;;27.35;6.72;;;8.40;81.90;;;;;;4990164;28;20046;-74
2023/01/13 08:33:38;;;;;;;27.92;6.88;;;8.40;81.70;;;;;;4989070;28;20049;-74
2023/01/13 08:36:09;;;;;;;29.85;6.30;;;8.50;81.40;;;;;;4983359;28;20223;-75
2023/01/13 08:38:36;;;;;;;27.67;6.45;;;8.60;80.70;;;;;;4985312;28;20084;-75
2023/01/13 08:41:11;;;;;;;32.13;6.18;;;8.60;80.70;;;;;;4985124;28;20039;-74
2023/01/13 08:43:37;;;;;;;28.15;5.60;;;8.60;80.20;;;;;;4980945;28;20080;-74
2023/01/13 08:46:05;;;;;;;23.77;5.43;;;8.60;80.10;;;;;;4985685;28;20058;-74
2023/01/13 08:48:31;;;;;;;33.22;6.72;;;8.60;80.30;;;;;;4988641;28;20058;-75
2023/01/13 08:51:06;;;;;;;29.42;6.35;;;8.70;80.00;;;;;;4986913;28;20135;-74
2023/01/13 08:53:31;;;;;;;26.98;5.80;;;8.70;80.10;;;;;;4984276;28;20649;-73
2023/01/13 08:55:57;;;;;;;30.23;6.25;;;8.80;79.90;;;;;;4986907;28;20168;-74
2023/01/13 08:58:23;;;;;;;31.00;6.50;;;8.90;79.90;;;;;;4969909;28;20105;-73
2023/01/13 09:00:48;;;;;;;34.83;7.00;;;9.00;80.10;;;;;;4976216;28;20155;-73
2023/01/13 09:03:14;;;;;;;31.00;6.90;;;9.10;80.00;;;;;;4979872;28;20023;-73
2023/01/13 09:05:40;;;;;;;29.95;5.90;;;9.10;79.60;;;;;;4986621;28;21300;-73
2023/01/13 09:08:05;;;;;;;28.25;6.47;;;9.10;79.40;;;;;;4975873;28;20391;-73
2023/01/13 09:10:31;;;;;;;29.70;7.55;;;9.10;79.40;;;;;;4980955;28;20030;-74
2023/01/13 09:13:12;;;;;;;30.90;6.57;;;9.20;79.40;;;;;;4979636;28;20054;-73
2023/01/13 09:15:43;;;;;;;26.85;5.80;;;9.20;78.90;;;;;;4979069;28;20056;-73
2023/01/13 09:18:10;;;;;;;27.75;6.05;;;9.30;78.40;;;;;;4970831;28;20105;-74
2023/01/13 09:20:35;;;;;;;23.30;6.03;;;9.40;77.90;;;;;;4984788;28;20096;-73
2023/01/13 09:23:02;;;;;;;25.15;5.68;;;9.50;77.20;;;;;;4976490;28;20030;-73
2023/01/13 09:25:28;;;;;;;23.42;5.47;;;9.50;76.90;;;;;;4974446;28;20049;-73
2023/01/13 09:27:53;;;;;;;26.25;4.97;;;9.60;75.90;;;;;;4972556;28;20042;-73
2023/01/13 09:30:19;;;;;;;26.02;5.90;;;9.60;75.90;;;;;;4969689;28;20157;-73
2023/01/13 09:32:45;;;;;;;25.98;5.05;;;9.60;75.70;;;;;;4974579;28;20084;-73
2023/01/13 09:35:10;;;;;;;24.80;5.68;;;9.70;75.60;;;;;;4975929;28;20101;-72
2023/01/13 09:37:39;;;;;;;24.80;5.43;;;9.80;75.80;;;;;;4967961;28;20419;-74
2023/01/13 09:40:16;;;;;;;25.85;5.90;;;9.80;75.40;;;;;;4972119;28;20057;-73
2023/01/13 09:45:50;;;;;;;26.30;5.07;;;10.10;75.10;;;;;;4972293;28;20041;-74
2023/01/13 09:48:25;;;;;;;21.02;5.75;;;10.10;74.60;;;;;;4968762;28;20110;-73
2023/01/13 09:51:17;;;;;;;27.30;5.70;;;10.10;74.00;;;;;;4969764;28;20566;-72
2023/01/13 09:53:50;;;;;;;17.13;4.82;;;10.00;74.50;;;;;;4976596;28;20087;-73
2023/01/13 09:56:16;;;;;;;21.75;4.78;;;10.10;74.00;;;;;;4972683;28;20050;-72
2023/01/13 09:58:43;;;;;;;24.02;4.70;;;10.10;74.60;;;;;;4968288;28;20026;-73
2023/01/13 10:01:23;;;;;;;18.83;4.38;;;10.10;75.00;;;;;;4971541;28;20051;-73
2023/01/13 10:03:49;;;;;;;24.05;4.70;;;10.10;75.10;;;;;;4971558;28;20038;-74
2023/01/13 10:06:23;;;;;;;23.85;5.15;;;10.10;75.40;;;;;;4968514;28;20042;-73
2023/01/13 10:08:49;;;;;;;21.63;5.10;;;10.00;75.70;;;;;;4972897;28;20447;-73
2023/01/13 10:14:36;;;;;;;23.77;5.03;;;10.00;75.60;;;;;;4967911;28;20041;-73
2023/01/13 10:17:18;;;;;;;21.45;4.82;;;10.00;75.60;;;;;;4969884;28;20052;-74
2023/01/13 10:20:05;;;;;;;21.85;4.72;;;10.00;75.30;;;;;;4980641;28;20097;-73
2023/01/13 10:22:40;;;;;;;26.70;4.28;;;10.10;75.20;;;;;;4966459;28;20039;-73
2023/01/13 10:25:21;;;;;;;23.70;5.55;;;10.10;75.50;;;;;;4969556;28;20026;-74
2023/01/13 10:27:55;;;;;;;16.15;5.05;;;10.10;75.50;;;;;;4968972;28;20043;-73
2023/01/13 10:30:29;;;;;;;19.25;4.32;;;10.00;76.30;;;;;;4956979;28;20026;-74
2023/01/13 10:32:58;;;;;;;23.70;4.30;;;10.10;76.60;;;;;;4967156;28;20468;-74
2023/01/13 10:36:21;;;;;;;17.27;4.68;;;10.10;75.90;;;;;;4971163;28;20038;-74
2023/01/13 10:38:49;;;;;;;21.77;4.78;;;10.10;75.90;;;;;;4968340;28;20038;-73
2023/01/13 10:41:14;;;;;;;30.40;4.75;;;10.20;76.30;;;;;;4970801;28;20641;-73
2023/01/13 10:44:05;;;;;;;20.48;4.25;;;10.20;76.00;;;;;;4970560;28;20014;-74
2023/01/13 10:46:33;;;;;;;23.85;4.63;;;10.30;76.60;;;;;;4960802;28;20034;-74
2023/01/13 10:49:03;;;;;;;20.20;4.78;;;10.30;76.90;;;;;;4973118;28;20029;-73
2023/01/13 10:51:38;;;;;;;29.33;5.53;;;10.20;77.00;;;;;;4974002;28;20512;-74
2023/01/13 10:54:10;;;;;;;;;;;10.20;76.30;;;;;;4980936;28;20033;-74
2023/01/13 10:56:37;;;;;;;26.70;4.90;;;10.10;77.30;;;;;;4973199;28;19928;-74
2023/01/13 10:59:13;;;;;;;18.63;5.10;;;10.10;77.70;;;;;;4970158;28;20361;-73
2023/01/13 11:01:42;;;;;;;23.55;4.25;;;10.10;76.70;;;;;;4972003;28;20077;-73
2023/01/13 11:04:39;;;;;;;21.50;4.70;;;10.10;76.50;;;;;;4969478;28;20030;-74
2023/01/13 11:07:17;;;;;;;21.65;4.90;;;10.10;76.50;;;;;;4967272;28;20557;-74
2023/01/13 11:09:43;;;;;;;17.48;4.68;;;10.20;76.70;;;;;;4979308;28;20026;-74
2023/01/13 11:12:30;;;;;;;23.88;5.60;;;10.20;76.20;;;;;;4981841;28;20029;-73
2023/01/13 11:14:59;;;;;;;22.05;4.85;;;10.30;75.70;;;;;;4973849;28;20039;-73
2023/01/13 11:17:34;;;;;;;27.63;5.05;;;10.30;75.60;;;;;;4968296;28;20736;-73
2023/01/13 11:20:30;;;;;;;20.65;4.95;;;10.20;75.40;;;;;;4974862;28;20026;-74
2023/01/13 11:22:58;;;;;;;22.05;6.00;;;10.30;75.10;;;;;;4973595;28;20168;-73
2023/01/13 11:25:42;;;;;;;17.40;5.43;;;10.30;75.20;;;;;;4972817;28;20037;-73
2023/01/13 11:28:28;;;;;;;19.25;5.03;;;10.20;75.00;;;;;;4976723;28;20522;-74
2023/01/13 11:31:12;;;;;;;26.73;5.18;;;10.30;74.50;;;;;;4973114;28;20034;-72
2023/01/13 11:33:44;;;;;;;17.80;6.43;;;10.30;74.70;;;;;;4983482;28;20568;-74
2023/01/13 11:36:21;;;;;;;17.27;4.38;;;10.30;74.80;;;;;;4988271;28;20106;-73
2023/01/13 11:39:01;;;;;;;24.25;6.75;;;10.40;74.90;;;;;;4978998;28;20492;-73
2023/01/13 11:42:21;;;;;;;20.73;4.88;;;10.40;74.70;;;;;;4972905;28;20382;-73
2023/01/13 11:45:15;;;;;;;17.35;4.40;;;10.50;73.80;;;;;;4973893;28;20021;-73
2023/01/13 11:47:45;;;;;;;26.65;4.78;;;10.40;74.40;;;;;;4977197;28;20446;-74
2023/01/13 11:50:17;;;;;;;20.63;5.28;;;10.50;74.30;;;;;;4980574;28;20026;-74
2023/01/13 11:52:58;;;;;;;19.83;4.32;;;10.50;74.70;;;;;;4978580;28;20038;-76
2023/01/13 11:55:45;;;;;;;20.38;4.57;;;10.50;74.40;;;;;;4971083;28;20050;-75
2023/01/13 11:58:30;;;;;;;21.63;4.90;;;10.50;74.10;;;;;;4975195;28;20022;-75
2023/01/13 12:01:18;;;;;;;;;;;10.60;74.10;;;;;;4973377;28;20252;-75
2023/01/13 12:04:18;;;;;;;27.38;5.72;;;10.50;73.90;;;;;;4977087;28;19988;-76
2023/01/13 12:06:44;;;;;;;21.00;5.13;;;10.60;73.90;;;;;;4980719;28;20042;-75
2023/01/13 12:09:29;;;;;;;18.85;5.15;;;10.60;73.40;;;;;;4988284;28;20037;-76
2023/01/13 12:12:18;;;;;;;18.90;4.68;;;10.60;73.10;;;;;;4976012;28;20057;-76
2023/01/13 12:15:17;;;;;;;27.13;6.03;;;10.60;73.90;;;;;;4971848;28;20049;-75
2023/01/13 12:18:08;;;;;;;18.45;5.88;;;10.80;73.80;;;;;;4972816;28;20040;-75
2023/01/13 12:21:08;;;;;;;24.77;5.40;;;10.90;72.70;;;;;;4979203;28;20041;-75
2023/01/13 12:23:44;;;;;;;22.42;4.90;;;11.00;72.40;;;;;;4989615;28;20176;-75
2023/01/13 12:26:12;;;;;;;21.13;5.13;;;11.00;71.90;;;;;;4989256;28;20522;-75
2023/01/13 12:29:00;;;;;;;23.38;5.88;;;10.90;71.50;;;;;;4992931;28;20824;-75
2023/01/13 12:31:27;;;;;;;21.35;4.88;;;11.00;71.40;;;;;;4977407;28;20046;-75
2023/01/13 12:34:19;;;;;;;20.95;4.63;;;11.00;71.70;;;;;;4993215;28;20025;-75
2023/01/13 12:37:01;;;;;;;28.88;6.45;;;10.80;72.30;;;;;;4982505;28;20040;-75
2023/01/13 12:39:49;;;;;;;19.63;6.22;;;10.80;72.00;;;;;;4986038;28;20023;-76
2023/01/13 12:45:32;;;;;;;20.83;6.05;;;10.80;71.00;;;;;;4986292;28;20640;-75
2023/01/13 12:47:59;;;;;;;20.15;5.50;;;10.80;71.40;;;;;;4988650;28;20014;-75
2023/01/13 12:50:24;;;;;;;25.50;6.70;;;10.80;70.90;;;;;;4988900;28;20034;-75
2023/01/13 12:53:16;;;;;;;19.45;5.97;;;10.70;71.40;;;;;;4987506;28;20112;-75
2023/01/13 12:55:42;;;;;;;20.65;5.10;;;10.70;71.20;;;;;;4983303;28;20490;-75
2023/01/13 12:58:07;;;;;;;15.00;4.40;;;10.70;70.00;;;;;;4988226;28;20022;-75
2023/01/13 13:00:39;;;;;;;24.75;5.30;;;10.60;71.00;;;;;;4987484;28;20199;-75
2023/01/13 13:03:13;;;;;;;19.13;4.88;;;10.60;71.40;;;;;;4993169;28;20037;-75
2023/01/13 13:06:04;;;;;;;17.00;4.00;;;10.60;70.90;;;;;;4989292;28;20030;-75
2023/01/13 13:08:54;;;;;;;21.73;4.53;;;10.50;70.70;;;;;;4983376;28;20119;-75
2023/01/13 13:14:40;;;;;;;23.13;5.18;;;10.50;71.70;;;;;;4989711;28;20176;-76
2023/01/13 13:17:28;;;;;;;21.13;5.47;;;10.60;71.80;;;;;;4983092;28;20054;-75
2023/01/13 13:19:55;;;;;;;19.42;5.72;;;10.50;71.60;;;;;;4981329;28;20054;-75
2023/01/13 13:22:27;;;;;;;18.30;5.03;;;10.50;71.20;;;;;;4985723;28;20049;-77
2023/01/13 13:24:58;;;;;;;19.70;4.57;;;10.50;70.90;;;;;;4980550;28;20109;-73
2023/01/13 13:27:36;;;;;;;20.77;4.70;;;10.50;71.10;;;;;;4990569;28;20069;-75
2023/01/13 13:30:26;;;;;;;22.17;5.25;;;10.60;71.50;;;;;;4983640;28;20471;-74
2023/01/13 13:33:20;;;;;;;22.75;6.32;;;10.60;70.70;;;;;;4976152;28;20039;-75
2023/01/13 13:36:03;;;;;;;16.98;3.63;;;10.60;71.00;;;;;;4976132;28;20041;-75
2023/01/13 13:47:16;;;;;;;18.60;5.28;;;10.80;69.80;;;;;;4987866;28;20096;-75
2023/01/13 13:49:47;;;;;;;21.67;5.55;;;10.60;70.80;;;;;;4989263;28;20022;-74
2023/01/13 13:52:17;;;;;;;22.08;5.43;;;10.60;71.00;;;;;;4984243;28;20093;-75
2023/01/13 13:54:50;;;;;;;20.92;5.80;;;10.60;70.90;;;;;;4988076;28;20022;-75
2023/01/13 13:57:20;;;;;;;20.52;5.18;;;10.60;70.60;;;;;;4990182;28;20625;-75
2023/01/13 13:59:52;;;;;;;24.25;6.47;;;10.60;70.70;;;;;;4988975;28;20038;-75
2023/01/13 14:02:29;;;;;;;21.42;5.95;;;10.60;71.10;;;;;;4986688;28;20030;-75
2023/01/13 14:05:31;;;;;;;22.77;5.28;;;10.60;71.30;;;;;;4982265;28;20026;-74